sensor_id;sensor_type;location;lat;lon;timestamp;P1;durP1;ratioP1;P2;durP2;ratioP2
65469;SDS011;52067;50.710;14.492;2022-08-01T00:00:24;5.63;;;3.90;;
65469;SDS011;52067;50.710;14.492;2022-08-01T00:02:50;4.38;;;3.40;;
65469;SDS011;52067;50.710;14.492;2022-08-01T00:05:15;9.57;;;3.60;;
65469;SDS011;52067;50.710;14.492;2022-08-01T00:07:40;4.18;;;3.60;;
65469;SDS011;52067;50.710;14.492;2022-08-01T00:10:13;5.22;;;3.60;;
65469;SDS011;52067;50.710;14.492;2022-08-01T00:12:40;4.72;;;3.53;;
65469;SDS011;52067;50.710;14.492;2022-08-01T00:15:07;3.83;;;3.35;;
65469;SDS011;52067;50.710;14.492;2022-08-01T00:17:34;7.20;;;4.00;;
65469;SDS011;52067;50.710;14.492;2022-08-01T00:19:59;6.20;;;3.80;;
65469;SDS011;52067;50.710;14.492;2022-08-01T00:22:25;4.95;;;3.70;;
65469;SDS011;52067;50.710;14.492;2022-08-01T00:24:51;7.13;;;3.70;;
65469;SDS011;52067;50.710;14.492;2022-08-01T00:27:16;8.85;;;4.20;;
65469;SDS011;52067;50.710;14.492;2022-08-01T00:29:42;7.25;;;3.92;;
65469;SDS011;52067;50.710;14.492;2022-08-01T00:32:07;6.50;;;3.88;;
65469;SDS011;52067;50.710;14.492;2022-08-01T00:34:32;4.47;;;3.60;;
65469;SDS011;52067;50.710;14.492;2022-08-01T00:36:58;4.38;;;3.80;;
65469;SDS011;52067;50.710;14.492;2022-08-01T00:39:23;4.95;;;3.72;;
65469;SDS011;52067;50.710;14.492;2022-08-01T00:41:49;4.40;;;3.90;;
65469;SDS011;52067;50.710;14.492;2022-08-01T00:44:14;6.35;;;3.97;;
65469;SDS011;52067;50.710;14.492;2022-08-01T00:46:41;9.30;;;3.85;;
65469;SDS011;52067;50.710;14.492;2022-08-01T00:49:06;4.95;;;3.83;;
65469;SDS011;52067;50.710;14.492;2022-08-01T00:51:32;5.40;;;3.90;;
65469;SDS011;52067;50.710;14.492;2022-08-01T00:53:58;6.80;;;4.03;;
65469;SDS011;52067;50.710;14.492;2022-08-01T00:56:25;5.80;;;4.05;;
65469;SDS011;52067;50.710;14.492;2022-08-01T00:58:52;4.80;;;4.00;;
65469;SDS011;52067;50.710;14.492;2022-08-01T01:01:18;4.63;;;4.10;;
65469;SDS011;52067;50.710;14.492;2022-08-01T01:03:47;5.65;;;4.03;;
65469;SDS011;52067;50.710;14.492;2022-08-01T01:08:54;5.18;;;4.07;;
65469;SDS011;52067;50.710;14.492;2022-08-01T01:17:27;5.85;;;3.92;;
65469;SDS011;52067;50.710;14.492;2022-08-01T01:20:00;7.38;;;4.18;;
65469;SDS011;52067;50.710;14.492;2022-08-01T01:31:22;5.50;;;4.40;;
65469;SDS011;52067;50.710;14.492;2022-08-01T01:33:50;6.90;;;4.28;;
65469;SDS011;52067;50.710;14.492;2022-08-01T01:36:18;6.35;;;4.53;;
65469;SDS011;52067;50.710;14.492;2022-08-01T01:38:45;5.93;;;4.65;;
65469;SDS011;52067;50.710;14.492;2022-08-01T01:41:12;6.70;;;4.35;;
65469;SDS011;52067;50.710;14.492;2022-08-01T01:43:40;7.47;;;4.72;;
65469;SDS011;52067;50.710;14.492;2022-08-01T01:46:07;6.53;;;4.38;;
65469;SDS011;52067;50.710;14.492;2022-08-01T01:48:35;5.00;;;4.50;;
65469;SDS011;52067;50.710;14.492;2022-08-01T01:51:02;5.32;;;4.35;;
65469;SDS011;52067;50.710;14.492;2022-08-01T01:53:28;6.57;;;4.30;;
65469;SDS011;52067;50.710;14.492;2022-08-01T01:55:57;7.43;;;4.35;;
65469;SDS011;52067;50.710;14.492;2022-08-01T01:58:24;7.43;;;4.60;;
65469;SDS011;52067;50.710;14.492;2022-08-01T02:00:51;6.25;;;4.60;;
65469;SDS011;52067;50.710;14.492;2022-08-01T02:03:17;6.47;;;5.05;;
65469;SDS011;52067;50.710;14.492;2022-08-01T02:05:44;5.32;;;4.50;;
65469;SDS011;52067;50.710;14.492;2022-08-01T02:08:13;7.57;;;4.43;;
65469;SDS011;52067;50.710;14.492;2022-08-01T02:10:40;5.38;;;4.22;;
65469;SDS011;52067;50.710;14.492;2022-08-01T02:13:06;5.18;;;4.68;;
65469;SDS011;52067;50.710;14.492;2022-08-01T02:15:33;7.80;;;4.60;;
65469;SDS011;52067;50.710;14.492;2022-08-01T02:18:03;5.75;;;4.50;;
65469;SDS011;52067;50.710;14.492;2022-08-01T02:20:30;6.25;;;4.60;;
65469;SDS011;52067;50.710;14.492;2022-08-01T02:23:05;6.25;;;5.05;;
65469;SDS011;52067;50.710;14.492;2022-08-01T02:25:34;6.55;;;5.20;;
65469;SDS011;52067;50.710;14.492;2022-08-01T02:28:07;5.00;;;4.40;;
65469;SDS011;52067;50.710;14.492;2022-08-01T02:30:39;6.25;;;4.75;;
65469;SDS011;52067;50.710;14.492;2022-08-01T02:33:11;6.55;;;4.63;;
65469;SDS011;52067;50.710;14.492;2022-08-01T02:35:41;6.80;;;4.80;;
65469;SDS011;52067;50.710;14.492;2022-08-01T02:38:09;8.50;;;5.72;;
65469;SDS011;52067;50.710;14.492;2022-08-01T02:40:37;10.60;;;4.97;;
65469;SDS011;52067;50.710;14.492;2022-08-01T02:43:06;7.05;;;5.00;;
65469;SDS011;52067;50.710;14.492;2022-08-01T02:45:34;5.75;;;4.95;;
65469;SDS011;52067;50.710;14.492;2022-08-01T02:48:05;7.13;;;4.90;;
65469;SDS011;52067;50.710;14.492;2022-08-01T02:50:37;6.13;;;5.00;;
65469;SDS011;52067;50.710;14.492;2022-08-01T02:53:04;7.50;;;4.80;;
65469;SDS011;52067;50.710;14.492;2022-08-01T02:55:31;7.00;;;4.72;;
65469;SDS011;52067;50.710;14.492;2022-08-01T02:57:57;6.00;;;5.20;;
65469;SDS011;52067;50.710;14.492;2022-08-01T03:00:25;6.45;;;5.00;;
65469;SDS011;52067;50.710;14.492;2022-08-01T03:02:52;5.80;;;5.10;;
65469;SDS011;52067;50.710;14.492;2022-08-01T03:05:20;9.05;;;5.30;;
65469;SDS011;52067;50.710;14.492;2022-08-01T03:07:47;7.57;;;5.75;;
65469;SDS011;52067;50.710;14.492;2022-08-01T03:10:13;6.05;;;4.95;;
65469;SDS011;52067;50.710;14.492;2022-08-01T03:12:41;6.15;;;5.00;;
65469;SDS011;52067;50.710;14.492;2022-08-01T03:15:08;6.38;;;5.13;;
65469;SDS011;52067;50.710;14.492;2022-08-01T03:17:35;6.78;;;5.03;;
65469;SDS011;52067;50.710;14.492;2022-08-01T03:20:02;6.75;;;5.57;;
65469;SDS011;52067;50.710;14.492;2022-08-01T03:22:29;7.60;;;4.93;;
65469;SDS011;52067;50.710;14.492;2022-08-01T03:24:57;6.03;;;5.35;;
65469;SDS011;52067;50.710;14.492;2022-08-01T03:27:24;6.95;;;5.47;;
65469;SDS011;52067;50.710;14.492;2022-08-01T03:29:50;5.85;;;5.15;;
65469;SDS011;52067;50.710;14.492;2022-08-01T03:32:17;7.93;;;5.93;;
65469;SDS011;52067;50.710;14.492;2022-08-01T03:34:44;7.32;;;5.75;;
65469;SDS011;52067;50.710;14.492;2022-08-01T03:37:11;8.18;;;6.00;;
65469;SDS011;52067;50.710;14.492;2022-08-01T03:39:55;7.53;;;5.22;;
65469;SDS011;52067;50.710;14.492;2022-08-01T03:42:46;8.38;;;4.85;;
65469;SDS011;52067;50.710;14.492;2022-08-01T03:45:27;6.35;;;4.85;;
65469;SDS011;52067;50.710;14.492;2022-08-01T03:48:00;7.47;;;5.22;;
65469;SDS011;52067;50.710;14.492;2022-08-01T03:50:28;7.30;;;5.07;;
65469;SDS011;52067;50.710;14.492;2022-08-01T03:53:02;8.35;;;5.28;;
65469;SDS011;52067;50.710;14.492;2022-08-01T03:55:29;5.93;;;5.13;;
65469;SDS011;52067;50.710;14.492;2022-08-01T03:57:56;6.15;;;4.90;;
65469;SDS011;52067;50.710;14.492;2022-08-01T04:00:24;5.75;;;5.00;;
65469;SDS011;52067;50.710;14.492;2022-08-01T04:02:50;5.95;;;4.88;;
65469;SDS011;52067;50.710;14.492;2022-08-01T04:05:16;8.40;;;4.90;;
65469;SDS011;52067;50.710;14.492;2022-08-01T04:07:47;6.85;;;5.18;;
65469;SDS011;52067;50.710;14.492;2022-08-01T04:10:20;5.65;;;5.05;;
65469;SDS011;52067;50.710;14.492;2022-08-01T04:12:46;8.25;;;5.10;;
65469;SDS011;52067;50.710;14.492;2022-08-01T04:15:12;6.75;;;5.57;;
65469;SDS011;52067;50.710;14.492;2022-08-01T04:17:37;8.88;;;5.70;;
65469;SDS011;52067;50.710;14.492;2022-08-01T04:20:03;6.13;;;5.18;;
65469;SDS011;52067;50.710;14.492;2022-08-01T04:22:28;8.90;;;5.30;;
65469;SDS011;52067;50.710;14.492;2022-08-01T04:24:55;6.55;;;5.22;;
65469;SDS011;52067;50.710;14.492;2022-08-01T04:27:25;5.25;;;4.75;;
65469;SDS011;52067;50.710;14.492;2022-08-01T04:29:54;10.60;;;4.88;;
65469;SDS011;52067;50.710;14.492;2022-08-01T04:32:23;6.07;;;4.65;;
65469;SDS011;52067;50.710;14.492;2022-08-01T04:34:51;7.55;;;5.13;;
65469;SDS011;52067;50.710;14.492;2022-08-01T04:37:20;7.38;;;5.60;;
65469;SDS011;52067;50.710;14.492;2022-08-01T04:39:48;6.72;;;5.13;;
65469;SDS011;52067;50.710;14.492;2022-08-01T04:42:16;6.47;;;5.15;;
65469;SDS011;52067;50.710;14.492;2022-08-01T04:44:42;6.05;;;5.10;;
65469;SDS011;52067;50.710;14.492;2022-08-01T04:47:07;5.57;;;4.93;;
65469;SDS011;52067;50.710;14.492;2022-08-01T04:49:34;7.88;;;4.80;;
65469;SDS011;52067;50.710;14.492;2022-08-01T04:52:00;6.82;;;5.38;;
65469;SDS011;52067;50.710;14.492;2022-08-01T04:54:26;8.98;;;5.35;;
65469;SDS011;52067;50.710;14.492;2022-08-01T04:56:52;5.75;;;5.15;;
65469;SDS011;52067;50.710;14.492;2022-08-01T04:59:28;7.55;;;5.38;;
65469;SDS011;52067;50.710;14.492;2022-08-01T05:02:10;6.10;;;5.35;;
65469;SDS011;52067;50.710;14.492;2022-08-01T05:04:36;6.43;;;5.38;;
65469;SDS011;52067;50.710;14.492;2022-08-01T05:07:02;8.38;;;4.88;;
65469;SDS011;52067;50.710;14.492;2022-08-01T05:09:28;6.63;;;4.97;;
65469;SDS011;52067;50.710;14.492;2022-08-01T05:11:53;6.35;;;4.95;;
65469;SDS011;52067;50.710;14.492;2022-08-01T05:14:19;7.95;;;5.53;;
65469;SDS011;52067;50.710;14.492;2022-08-01T05:16:44;5.75;;;5.18;;
65469;SDS011;52067;50.710;14.492;2022-08-01T05:19:10;6.55;;;5.65;;
65469;SDS011;52067;50.710;14.492;2022-08-01T05:21:36;6.72;;;5.38;;
65469;SDS011;52067;50.710;14.492;2022-08-01T05:24:02;7.45;;;5.70;;
65469;SDS011;52067;50.710;14.492;2022-08-01T05:26:28;6.60;;;5.63;;
65469;SDS011;52067;50.710;14.492;2022-08-01T05:28:54;7.28;;;5.82;;
65469;SDS011;52067;50.710;14.492;2022-08-01T05:31:19;6.95;;;5.20;;
65469;SDS011;52067;50.710;14.492;2022-08-01T05:33:44;7.30;;;4.95;;
65469;SDS011;52067;50.710;14.492;2022-08-01T05:36:10;5.93;;;4.72;;
65469;SDS011;52067;50.710;14.492;2022-08-01T05:38:35;8.48;;;4.90;;
65469;SDS011;52067;50.710;14.492;2022-08-01T05:41:00;5.80;;;4.78;;
65469;SDS011;52067;50.710;14.492;2022-08-01T05:43:26;6.80;;;4.85;;
65469;SDS011;52067;50.710;14.492;2022-08-01T05:45:51;8.55;;;4.60;;
65469;SDS011;52067;50.710;14.492;2022-08-01T05:48:17;6.63;;;4.90;;
65469;SDS011;52067;50.710;14.492;2022-08-01T05:50:42;5.32;;;4.68;;
65469;SDS011;52067;50.710;14.492;2022-08-01T05:53:07;6.85;;;4.55;;
65469;SDS011;52067;50.710;14.492;2022-08-01T05:55:34;6.43;;;5.15;;
65469;SDS011;52067;50.710;14.492;2022-08-01T05:58:00;6.18;;;5.40;;
65469;SDS011;52067;50.710;14.492;2022-08-01T06:00:25;7.15;;;5.00;;
65469;SDS011;52067;50.710;14.492;2022-08-01T06:02:50;6.30;;;5.00;;
65469;SDS011;52067;50.710;14.492;2022-08-01T06:05:16;9.00;;;4.90;;
65469;SDS011;52067;50.710;14.492;2022-08-01T06:07:41;7.30;;;5.40;;
65469;SDS011;52067;50.710;14.492;2022-08-01T06:10:07;6.90;;;5.60;;
65469;SDS011;52067;50.710;14.492;2022-08-01T06:12:33;7.05;;;5.40;;
65469;SDS011;52067;50.710;14.492;2022-08-01T06:14:59;7.38;;;5.28;;
65469;SDS011;52067;50.710;14.492;2022-08-01T06:17:24;7.95;;;5.28;;
65469;SDS011;52067;50.710;14.492;2022-08-01T06:19:50;5.43;;;4.78;;
65469;SDS011;52067;50.710;14.492;2022-08-01T06:22:15;5.15;;;4.32;;
65469;SDS011;52067;50.710;14.492;2022-08-01T06:24:41;8.95;;;4.65;;
65469;SDS011;52067;50.710;14.492;2022-08-01T06:27:06;8.43;;;4.43;;
65469;SDS011;52067;50.710;14.492;2022-08-01T06:29:31;10.80;;;4.60;;
65469;SDS011;52067;50.710;14.492;2022-08-01T06:31:57;5.82;;;4.10;;
65469;SDS011;52067;50.710;14.492;2022-08-01T06:34:23;5.85;;;3.88;;
65469;SDS011;52067;50.710;14.492;2022-08-01T06:36:48;4.10;;;3.70;;
65469;SDS011;52067;50.710;14.492;2022-08-01T06:39:14;4.35;;;3.58;;
65469;SDS011;52067;50.710;14.492;2022-08-01T06:41:39;3.70;;;2.85;;
65469;SDS011;52067;50.710;14.492;2022-08-01T06:44:06;5.85;;;2.88;;
65469;SDS011;52067;50.710;14.492;2022-08-01T06:46:32;6.72;;;3.10;;
65469;SDS011;52067;50.710;14.492;2022-08-01T06:48:58;4.78;;;2.72;;
65469;SDS011;52067;50.710;14.492;2022-08-01T06:51:23;3.40;;;2.75;;
65469;SDS011;52067;50.710;14.492;2022-08-01T06:53:49;3.67;;;2.65;;
65469;SDS011;52067;50.710;14.492;2022-08-01T06:56:14;3.55;;;2.60;;
65469;SDS011;52067;50.710;14.492;2022-08-01T06:58:39;3.42;;;2.58;;
65469;SDS011;52067;50.710;14.492;2022-08-01T07:01:05;4.13;;;2.60;;
65469;SDS011;52067;50.710;14.492;2022-08-01T07:03:32;4.15;;;2.80;;
65469;SDS011;52067;50.710;14.492;2022-08-01T07:05:58;4.38;;;2.40;;
65469;SDS011;52067;50.710;14.492;2022-08-01T07:08:23;2.80;;;2.35;;
65469;SDS011;52067;50.710;14.492;2022-08-01T07:10:49;5.97;;;2.83;;
65469;SDS011;52067;50.710;14.492;2022-08-01T07:13:14;3.75;;;2.75;;
65469;SDS011;52067;50.710;14.492;2022-08-01T07:15:45;5.20;;;2.40;;
65469;SDS011;52067;50.710;14.492;2022-08-01T07:18:11;3.70;;;2.53;;
65469;SDS011;52067;50.710;14.492;2022-08-01T07:20:36;4.22;;;2.60;;
65469;SDS011;52067;50.710;14.492;2022-08-01T07:23:02;5.38;;;2.83;;
65469;SDS011;52067;50.710;14.492;2022-08-01T07:25:27;4.53;;;2.50;;
65469;SDS011;52067;50.710;14.492;2022-08-01T07:27:53;4.55;;;2.50;;
65469;SDS011;52067;50.710;14.492;2022-08-01T07:30:18;4.63;;;2.70;;
65469;SDS011;52067;50.710;14.492;2022-08-01T07:32:43;3.60;;;2.45;;
65469;SDS011;52067;50.710;14.492;2022-08-01T07:35:09;2.72;;;2.42;;
65469;SDS011;52067;50.710;14.492;2022-08-01T07:37:34;5.88;;;2.50;;
65469;SDS011;52067;50.710;14.492;2022-08-01T07:39:59;3.10;;;2.53;;
65469;SDS011;52067;50.710;14.492;2022-08-01T07:42:25;4.13;;;2.63;;
65469;SDS011;52067;50.710;14.492;2022-08-01T07:44:50;3.80;;;2.80;;
65469;SDS011;52067;50.710;14.492;2022-08-01T07:47:16;3.30;;;2.80;;
65469;SDS011;52067;50.710;14.492;2022-08-01T07:49:41;4.45;;;2.80;;
65469;SDS011;52067;50.710;14.492;2022-08-01T07:52:07;3.70;;;2.63;;
65469;SDS011;52067;50.710;14.492;2022-08-01T07:54:33;3.55;;;2.42;;
65469;SDS011;52067;50.710;14.492;2022-08-01T07:56:58;5.75;;;2.80;;
65469;SDS011;52067;50.710;14.492;2022-08-01T07:59:24;3.00;;;2.70;;
65469;SDS011;52067;50.710;14.492;2022-08-01T08:01:49;4.57;;;2.65;;
65469;SDS011;52067;50.710;14.492;2022-08-01T08:04:16;5.15;;;2.60;;
65469;SDS011;52067;50.710;14.492;2022-08-01T08:06:42;2.95;;;2.65;;
65469;SDS011;52067;50.710;14.492;2022-08-01T08:09:08;3.42;;;2.47;;
65469;SDS011;52067;50.710;14.492;2022-08-01T08:11:33;4.82;;;2.83;;
65469;SDS011;52067;50.710;14.492;2022-08-01T08:13:58;4.53;;;3.15;;
65469;SDS011;52067;50.710;14.492;2022-08-01T08:16:24;4.45;;;3.10;;
65469;SDS011;52067;50.710;14.492;2022-08-01T08:18:49;5.00;;;2.90;;
65469;SDS011;52067;50.710;14.492;2022-08-01T08:21:14;3.70;;;3.35;;
65469;SDS011;52067;50.710;14.492;2022-08-01T08:23:40;7.18;;;3.40;;
65469;SDS011;52067;50.710;14.492;2022-08-01T08:26:24;3.95;;;3.35;;
65469;SDS011;52067;50.710;14.492;2022-08-01T08:28:50;4.35;;;3.53;;
65469;SDS011;52067;50.710;14.492;2022-08-01T08:31:15;5.18;;;3.88;;
65469;SDS011;52067;50.710;14.492;2022-08-01T08:33:40;7.95;;;3.75;;
65469;SDS011;52067;50.710;14.492;2022-08-01T08:36:06;6.65;;;4.30;;
65469;SDS011;52067;50.710;14.492;2022-08-01T08:38:31;5.63;;;4.38;;
65469;SDS011;52067;50.710;14.492;2022-08-01T08:40:57;5.25;;;4.30;;
65469;SDS011;52067;50.710;14.492;2022-08-01T08:43:22;5.43;;;3.88;;
65469;SDS011;52067;50.710;14.492;2022-08-01T08:45:49;5.93;;;4.00;;
65469;SDS011;52067;50.710;14.492;2022-08-01T08:48:15;4.78;;;3.78;;
65469;SDS011;52067;50.710;14.492;2022-08-01T08:50:42;4.80;;;3.22;;
65469;SDS011;52067;50.710;14.492;2022-08-01T08:53:10;7.60;;;3.75;;
65469;SDS011;52067;50.710;14.492;2022-08-01T08:55:38;4.43;;;3.20;;
65469;SDS011;52067;50.710;14.492;2022-08-01T08:58:08;4.20;;;3.20;;
65469;SDS011;52067;50.710;14.492;2022-08-01T09:00:38;4.65;;;3.40;;
65469;SDS011;52067;50.710;14.492;2022-08-01T09:03:04;4.72;;;3.42;;
65469;SDS011;52067;50.710;14.492;2022-08-01T09:05:29;4.95;;;3.15;;
65469;SDS011;52067;50.710;14.492;2022-08-01T09:07:55;4.72;;;3.38;;
65469;SDS011;52067;50.710;14.492;2022-08-01T09:10:20;3.88;;;3.05;;
65469;SDS011;52067;50.710;14.492;2022-08-01T09:15:41;6.03;;;3.60;;
65469;SDS011;52067;50.710;14.492;2022-08-01T09:18:22;4.13;;;3.28;;
65469;SDS011;52067;50.710;14.492;2022-08-01T09:23:51;5.65;;;3.30;;
65469;SDS011;52067;50.710;14.492;2022-08-01T09:26:27;7.80;;;3.20;;
65469;SDS011;52067;50.710;14.492;2022-08-01T09:28:55;4.72;;;3.28;;
65469;SDS011;52067;50.710;14.492;2022-08-01T09:31:21;3.85;;;2.90;;
65469;SDS011;52067;50.710;14.492;2022-08-01T09:33:47;6.15;;;2.90;;
65469;SDS011;52067;50.710;14.492;2022-08-01T09:36:15;10.55;;;2.90;;
65469;SDS011;52067;50.710;14.492;2022-08-01T09:38:41;4.32;;;2.50;;
65469;SDS011;52067;50.710;14.492;2022-08-01T09:41:06;3.72;;;2.33;;
65469;SDS011;52067;50.710;14.492;2022-08-01T09:43:32;3.22;;;2.22;;
65469;SDS011;52067;50.710;14.492;2022-08-01T09:45:58;2.58;;;2.10;;
65469;SDS011;52067;50.710;14.492;2022-08-01T09:48:25;2.63;;;1.80;;
65469;SDS011;52067;50.710;14.492;2022-08-01T09:50:52;2.22;;;2.03;;
65469;SDS011;52067;50.710;14.492;2022-08-01T09:53:18;2.50;;;2.05;;
65469;SDS011;52067;50.710;14.492;2022-08-01T09:55:44;4.55;;;1.80;;
65469;SDS011;52067;50.710;14.492;2022-08-01T09:58:10;2.13;;;1.75;;
65469;SDS011;52067;50.710;14.492;2022-08-01T10:00:36;2.63;;;1.90;;
65469;SDS011;52067;50.710;14.492;2022-08-01T10:03:19;3.88;;;2.08;;
65469;SDS011;52067;50.710;14.492;2022-08-01T10:05:44;2.53;;;2.10;;
65469;SDS011;52067;50.710;14.492;2022-08-01T10:08:10;5.03;;;2.45;;
65469;SDS011;52067;50.710;14.492;2022-08-01T10:10:37;4.35;;;2.70;;
65469;SDS011;52067;50.710;14.492;2022-08-01T10:13:03;3.55;;;2.00;;
65469;SDS011;52067;50.710;14.492;2022-08-01T10:15:29;2.40;;;1.67;;
65469;SDS011;52067;50.710;14.492;2022-08-01T10:17:56;2.47;;;1.50;;
65469;SDS011;52067;50.710;14.492;2022-08-01T10:20:27;1.40;;;1.30;;
65469;SDS011;52067;50.710;14.492;2022-08-01T10:22:54;2.05;;;1.40;;
65469;SDS011;52067;50.710;14.492;2022-08-01T10:25:21;1.48;;;1.20;;
65469;SDS011;52067;50.710;14.492;2022-08-01T10:27:51;2.17;;;0.88;;
65469;SDS011;52067;50.710;14.492;2022-08-01T10:30:20;1.13;;;1.00;;
65469;SDS011;52067;50.710;14.492;2022-08-01T10:32:46;2.15;;;1.17;;
65469;SDS011;52067;50.710;14.492;2022-08-01T10:35:12;1.23;;;1.00;;
65469;SDS011;52067;50.710;14.492;2022-08-01T10:37:43;1.70;;;1.10;;
65469;SDS011;52067;50.710;14.492;2022-08-01T10:40:11;3.17;;;1.23;;
65469;SDS011;52067;50.710;14.492;2022-08-01T10:42:41;1.40;;;1.23;;
65469;SDS011;52067;50.710;14.492;2022-08-01T10:45:08;1.48;;;1.10;;
65469;SDS011;52067;50.710;14.492;2022-08-01T10:55:51;1.42;;;1.10;;
65469;SDS011;52067;50.710;14.492;2022-08-01T10:58:38;1.35;;;1.00;;
65469;SDS011;52067;50.710;14.492;2022-08-01T11:01:20;1.27;;;1.05;;
65469;SDS011;52067;50.710;14.492;2022-08-01T11:06:26;1.10;;;1.00;;
65469;SDS011;52067;50.710;14.492;2022-08-01T11:09:03;1.92;;;1.25;;
65469;SDS011;52067;50.710;14.492;2022-08-01T11:11:30;1.45;;;1.10;;
65469;SDS011;52067;50.710;14.492;2022-08-01T11:16:26;1.10;;;0.90;;
65469;SDS011;52067;50.710;14.492;2022-08-01T11:18:56;1.33;;;1.02;;
65469;SDS011;52067;50.710;14.492;2022-08-01T11:21:22;2.75;;;1.10;;
65469;SDS011;52067;50.710;14.492;2022-08-01T11:23:51;1.52;;;0.90;;
65469;SDS011;52067;50.710;14.492;2022-08-01T11:26:18;1.27;;;1.00;;
65469;SDS011;52067;50.710;14.492;2022-08-01T11:28:45;0.80;;;0.80;;
65469;SDS011;52067;50.710;14.492;2022-08-01T11:31:32;2.28;;;0.90;;
65469;SDS011;52067;50.710;14.492;2022-08-01T11:33:58;1.17;;;1.00;;
65469;SDS011;52067;50.710;14.492;2022-08-01T11:36:24;2.10;;;1.20;;
65469;SDS011;52067;50.710;14.492;2022-08-01T11:41:31;1.08;;;0.98;;
65469;SDS011;52067;50.710;14.492;2022-08-01T11:44:17;0.90;;;0.90;;
65469;SDS011;52067;50.710;14.492;2022-08-01T11:46:49;1.10;;;1.00;;
65469;SDS011;52067;50.710;14.492;2022-08-01T11:52:06;1.27;;;1.10;;
65469;SDS011;52067;50.710;14.492;2022-08-01T11:54:33;1.50;;;1.05;;
65469;SDS011;52067;50.710;14.492;2022-08-01T11:57:02;7.32;;;1.30;;
65469;SDS011;52067;50.710;14.492;2022-08-01T11:59:36;2.55;;;1.10;;
65469;SDS011;52067;50.710;14.492;2022-08-01T12:02:14;1.10;;;1.00;;
65469;SDS011;52067;50.710;14.492;2022-08-01T12:04:48;1.42;;;1.30;;
65469;SDS011;52067;50.710;14.492;2022-08-01T12:07:16;2.40;;;1.38;;
65469;SDS011;52067;50.710;14.492;2022-08-01T12:09:42;1.23;;;1.13;;
65469;SDS011;52067;50.710;14.492;2022-08-01T12:12:08;1.20;;;1.10;;
65469;SDS011;52067;50.710;14.492;2022-08-01T12:14:34;4.03;;;1.20;;
65469;SDS011;52067;50.710;14.492;2022-08-01T12:17:00;5.05;;;1.42;;
65469;SDS011;52067;50.710;14.492;2022-08-01T12:19:25;1.80;;;1.33;;
65469;SDS011;52067;50.710;14.492;2022-08-01T12:22:06;2.33;;;1.15;;
65469;SDS011;52067;50.710;14.492;2022-08-01T12:24:34;1.42;;;1.33;;
65469;SDS011;52067;50.710;14.492;2022-08-01T12:27:00;1.30;;;1.20;;
65469;SDS011;52067;50.710;14.492;2022-08-01T12:29:42;1.63;;;1.30;;
65469;SDS011;52067;50.710;14.492;2022-08-01T12:32:25;2.47;;;1.30;;
65469;SDS011;52067;50.710;14.492;2022-08-01T12:35:05;1.80;;;1.40;;
65469;SDS011;52067;50.710;14.492;2022-08-01T12:37:32;1.50;;;1.40;;
65469;SDS011;52067;50.710;14.492;2022-08-01T12:40:12;3.15;;;1.70;;
65469;SDS011;52067;50.710;14.492;2022-08-01T12:42:40;3.05;;;1.67;;
65469;SDS011;52067;50.710;14.492;2022-08-01T12:45:10;4.55;;;1.70;;
65469;SDS011;52067;50.710;14.492;2022-08-01T12:47:38;6.93;;;1.90;;
65469;SDS011;52067;50.710;14.492;2022-08-01T12:50:08;2.50;;;1.88;;
65469;SDS011;52067;50.710;14.492;2022-08-01T12:52:38;3.03;;;1.73;;
65469;SDS011;52067;50.710;14.492;2022-08-01T12:55:06;2.33;;;1.77;;
65469;SDS011;52067;50.710;14.492;2022-08-01T12:57:37;2.10;;;1.70;;
65469;SDS011;52067;50.710;14.492;2022-08-01T13:00:15;2.03;;;1.70;;
65469;SDS011;52067;50.710;14.492;2022-08-01T13:02:49;1.60;;;1.40;;
65469;SDS011;52067;50.710;14.492;2022-08-01T13:05:26;1.92;;;1.40;;
65469;SDS011;52067;50.710;14.492;2022-08-01T13:07:52;3.60;;;1.20;;
65469;SDS011;52067;50.710;14.492;2022-08-01T13:10:28;9.07;;;1.95;;
65469;SDS011;52067;50.710;14.492;2022-08-01T13:12:55;1.60;;;1.30;;
65469;SDS011;52067;50.710;14.492;2022-08-01T13:17:49;23.15;;;3.08;;
65469;SDS011;52067;50.710;14.492;2022-08-01T13:20:23;2.58;;;1.20;;
65469;SDS011;52067;50.710;14.492;2022-08-01T13:22:49;1.30;;;1.20;;
65469;SDS011;52067;50.710;14.492;2022-08-01T13:25:15;2.78;;;1.30;;
65469;SDS011;52067;50.710;14.492;2022-08-01T13:27:41;2.03;;;1.20;;
65469;SDS011;52067;50.710;14.492;2022-08-01T13:30:14;3.75;;;1.20;;
65469;SDS011;52067;50.710;14.492;2022-08-01T13:32:44;1.17;;;1.00;;
65469;SDS011;52067;50.710;14.492;2022-08-01T13:35:22;0.90;;;0.90;;
65469;SDS011;52067;50.710;14.492;2022-08-01T13:37:48;7.93;;;1.30;;
65469;SDS011;52067;50.710;14.492;2022-08-01T13:40:22;1.73;;;1.20;;
65469;SDS011;52067;50.710;14.492;2022-08-01T13:42:49;3.20;;;1.08;;
65469;SDS011;52067;50.710;14.492;2022-08-01T13:45:14;0.80;;;0.80;;
65469;SDS011;52067;50.710;14.492;2022-08-01T13:47:40;1.50;;;1.10;;
65469;SDS011;52067;50.710;14.492;2022-08-01T13:50:05;1.58;;;1.10;;
65469;SDS011;52067;50.710;14.492;2022-08-01T13:52:31;4.00;;;1.15;;
65469;SDS011;52067;50.710;14.492;2022-08-01T13:54:57;2.63;;;1.30;;
65469;SDS011;52067;50.710;14.492;2022-08-01T13:57:23;4.38;;;1.42;;
65469;SDS011;52067;50.710;14.492;2022-08-01T13:59:48;3.60;;;1.60;;
65469;SDS011;52067;50.710;14.492;2022-08-01T14:02:14;3.00;;;1.70;;
65469;SDS011;52067;50.710;14.492;2022-08-01T14:04:39;3.80;;;1.20;;
65469;SDS011;52067;50.710;14.492;2022-08-01T14:07:04;1.40;;;1.20;;
65469;SDS011;52067;50.710;14.492;2022-08-01T14:09:30;1.58;;;1.10;;
65469;SDS011;52067;50.710;14.492;2022-08-01T14:11:55;2.55;;;1.20;;
65469;SDS011;52067;50.710;14.492;2022-08-01T14:14:20;2.42;;;1.38;;
65469;SDS011;52067;50.710;14.492;2022-08-01T14:16:46;3.08;;;1.10;;
65469;SDS011;52067;50.710;14.492;2022-08-01T14:19:11;3.03;;;1.20;;
65469;SDS011;52067;50.710;14.492;2022-08-01T14:21:37;5.35;;;1.30;;
65469;SDS011;52067;50.710;14.492;2022-08-01T14:24:02;3.65;;;1.50;;
65469;SDS011;52067;50.710;14.492;2022-08-01T14:26:28;2.35;;;1.30;;
65469;SDS011;52067;50.710;14.492;2022-08-01T14:28:53;1.60;;;1.05;;
65469;SDS011;52067;50.710;14.492;2022-08-01T14:31:18;3.97;;;1.15;;
65469;SDS011;52067;50.710;14.492;2022-08-01T14:33:44;1.48;;;1.13;;
65469;SDS011;52067;50.710;14.492;2022-08-01T14:36:09;1.20;;;1.10;;
65469;SDS011;52067;50.710;14.492;2022-08-01T14:38:34;2.17;;;1.20;;
65469;SDS011;52067;50.710;14.492;2022-08-01T14:41:00;2.20;;;0.93;;
65469;SDS011;52067;50.710;14.492;2022-08-01T14:43:28;1.13;;;1.00;;
65469;SDS011;52067;50.710;14.492;2022-08-01T14:45:53;12.27;;;1.20;;
65469;SDS011;52067;50.710;14.492;2022-08-01T14:48:19;1.05;;;0.95;;
65469;SDS011;52067;50.710;14.492;2022-08-01T14:50:45;3.30;;;1.20;;
65469;SDS011;52067;50.710;14.492;2022-08-01T14:53:10;2.30;;;1.10;;
65469;SDS011;52067;50.710;14.492;2022-08-01T14:55:36;1.65;;;1.15;;
65469;SDS011;52067;50.710;14.492;2022-08-01T14:58:01;2.03;;;1.15;;
65469;SDS011;52067;50.710;14.492;2022-08-01T15:00:27;3.17;;;1.13;;
65469;SDS011;52067;50.710;14.492;2022-08-01T15:02:52;6.70;;;1.20;;
65469;SDS011;52067;50.710;14.492;2022-08-01T15:05:18;4.45;;;1.17;;
65469;SDS011;52067;50.710;14.492;2022-08-01T15:07:43;3.17;;;1.20;;
65469;SDS011;52067;50.710;14.492;2022-08-01T15:10:09;2.95;;;1.05;;
65469;SDS011;52067;50.710;14.492;2022-08-01T15:12:35;1.80;;;1.10;;
65469;SDS011;52067;50.710;14.492;2022-08-01T15:15:00;2.05;;;1.13;;
65469;SDS011;52067;50.710;14.492;2022-08-01T15:17:29;5.00;;;1.00;;
65469;SDS011;52067;50.710;14.492;2022-08-01T15:19:58;4.80;;;1.10;;